createdAt,value
2022-09-28T00:00:13.249Z,51.212185
2022-09-28T00:01:13.232Z,51.212322
2022-09-28T00:02:13.293Z,51.212341
2022-09-28T00:03:13.276Z,51.212364
2022-09-28T00:04:13.223Z,51.212425
2022-09-28T00:05:13.221Z,51.212582
2022-09-28T00:06:13.205Z,51.212212
2022-09-28T00:07:13.218Z,51.212204
2022-09-28T00:08:13.195Z,51.212242
2022-09-28T00:09:13.253Z,51.212223
2022-09-28T00:10:13.216Z,51.212162
2022-09-28T00:11:13.171Z,51.212234
2022-09-28T00:12:13.172Z,51.212227
2022-09-28T00:13:13.166Z,51.212242
2022-09-28T00:14:13.169Z,51.212200
2022-09-28T00:15:13.177Z,51.212166
2022-09-28T00:16:13.178Z,51.212227
2022-09-28T00:17:13.142Z,51.212242
2022-09-28T00:18:13.150Z,51.212246
2022-09-28T00:19:13.235Z,51.212273
2022-09-28T00:20:13.122Z,51.212292
2022-09-28T00:21:14.118Z,51.212231
2022-09-28T00:22:13.110Z,51.212234
2022-09-28T00:23:13.098Z,51.212215
2022-09-28T00:24:13.141Z,51.212196
2022-09-28T00:25:13.094Z,51.212257
2022-09-28T00:26:13.090Z,51.212242
2022-09-28T00:27:13.119Z,51.212193
2022-09-28T00:28:13.074Z,51.212215
2022-09-28T00:29:13.116Z,51.212196
2022-09-28T00:30:13.092Z,51.212158
2022-09-28T00:31:13.100Z,51.212215
2022-09-28T00:32:13.047Z,51.212337
2022-09-28T00:33:13.050Z,51.212318
2022-09-28T00:34:13.049Z,51.212170
2022-09-28T00:35:13.069Z,51.212101
2022-09-28T00:36:13.032Z,51.212124
2022-09-28T00:37:13.025Z,51.211971
2022-09-28T00:38:13.022Z,51.211979
2022-09-28T00:39:13.090Z,51.211918
2022-09-28T00:40:13.014Z,51.211994
2022-09-28T00:41:13.018Z,51.211956
2022-09-28T00:42:12.991Z,51.212051
2022-09-28T00:43:12.987Z,51.211967
2022-09-28T00:44:12.982Z,51.212017
2022-09-28T00:45:12.982Z,51.212112
2022-09-28T00:46:13.023Z,51.212135
2022-09-28T00:47:12.998Z,51.212070
2022-09-28T00:48:12.972Z,51.211926
2022-09-28T00:49:12.954Z,51.211906
2022-09-28T00:50:12.958Z,51.211975
2022-09-28T00:51:12.954Z,51.212044
2022-09-28T00:52:12.935Z,51.211990
2022-09-28T00:53:12.942Z,51.211880
2022-09-28T00:54:12.918Z,51.211971
2022-09-28T00:55:12.935Z,51.211952
2022-09-28T00:56:12.918Z,51.211983
2022-09-28T00:57:12.941Z,51.212124
2022-09-28T00:58:12.914Z,51.212162
2022-09-28T00:59:12.954Z,51.212158
2022-09-28T01:00:12.954Z,51.212200
2022-09-28T01:01:12.937Z,51.212147
2022-09-28T01:02:12.970Z,51.212132
2022-09-28T01:03:12.868Z,51.212261
2022-09-28T01:04:12.878Z,51.212238
2022-09-28T01:05:12.858Z,51.212162
2022-09-28T01:06:12.867Z,51.212036
2022-09-28T01:07:12.882Z,51.211945
2022-09-28T01:08:12.867Z,51.211872
2022-09-28T01:09:12.892Z,51.211880
2022-09-28T01:10:12.834Z,51.211979
2022-09-28T01:11:12.839Z,51.212318
2022-09-28T01:12:12.826Z,51.211983
2022-09-28T01:13:12.844Z,51.212391
2022-09-28T01:14:12.815Z,51.212013
2022-09-28T01:15:12.802Z,51.212032
2022-09-28T01:16:12.925Z,51.212101
2022-09-28T01:17:12.790Z,51.211819
2022-09-28T01:18:12.799Z,51.211834
2022-09-28T01:19:12.837Z,51.211941
2022-09-28T01:20:12.774Z,51.211929
2022-09-28T01:21:12.787Z,51.211845
2022-09-28T01:22:12.759Z,51.211670
2022-09-28T01:23:12.775Z,51.211884
2022-09-28T01:24:12.767Z,51.211834
2022-09-28T01:25:12.741Z,51.212124
2022-09-28T01:26:12.744Z,51.212105
2022-09-28T01:27:13.722Z,51.212219
2022-09-28T01:28:12.738Z,51.212025
2022-09-28T01:29:12.716Z,51.212021
2022-09-28T01:30:12.710Z,51.212021
2022-09-28T01:31:12.787Z,51.212017
2022-09-28T01:32:13.696Z,51.212116
2022-09-28T01:33:12.695Z,51.212204
2022-09-28T01:34:12.724Z,51.212097
2022-09-28T01:35:12.684Z,51.212124
2022-09-28T01:36:12.671Z,51.212097
2022-09-28T01:37:12.699Z,51.212116
2022-09-28T01:38:12.679Z,51.212105
2022-09-28T01:39:12.655Z,51.212143
2022-09-28T01:40:12.644Z,51.211975
2022-09-28T01:41:12.664Z,51.211983
2022-09-28T01:42:12.694Z,51.212074
2022-09-28T01:43:12.632Z,51.212074
2022-09-28T01:44:12.647Z,51.212021
2022-09-28T01:45:12.611Z,51.212006
2022-09-28T01:46:12.718Z,51.212105
2022-09-28T01:47:12.614Z,51.212059
2022-09-28T01:48:12.619Z,51.212116
2022-09-28T01:49:12.651Z,51.212147
2022-09-28T01:50:12.591Z,51.212090
2022-09-28T01:51:12.591Z,51.212078
2022-09-28T01:52:12.580Z,51.212025
2022-09-28T01:53:12.582Z,51.212059
2022-09-28T01:54:12.579Z,51.212135
2022-09-28T01:55:12.560Z,51.211983
2022-09-28T01:56:12.567Z,51.211906
2022-09-28T01:57:12.542Z,51.211823
2022-09-28T01:58:12.544Z,51.212120
2022-09-28T01:59:12.543Z,51.212120
2022-09-28T02:00:12.566Z,51.212002
2022-09-28T02:01:12.566Z,51.212017
2022-09-28T02:02:12.591Z,51.212002
2022-09-28T02:03:13.531Z,51.212059
2022-09-28T02:04:12.503Z,51.212036
2022-09-28T02:05:12.527Z,51.212009
2022-09-28T02:06:12.494Z,51.211979
2022-09-28T02:07:12.504Z,51.212090
2022-09-28T02:08:12.488Z,51.212025
2022-09-28T02:09:12.490Z,51.212036
2022-09-28T02:10:12.471Z,51.212029
2022-09-28T02:11:12.478Z,51.211998
2022-09-28T02:12:12.486Z,51.212059
2022-09-28T02:13:44.907Z,51.212044
2022-09-28T02:14:12.448Z,51.212040
2022-09-28T02:15:12.442Z,51.212135
2022-09-28T02:16:12.458Z,51.212154
2022-09-28T02:17:12.465Z,51.212120
2022-09-28T02:18:12.439Z,51.212078
2022-09-28T02:19:12.427Z,51.212143
2022-09-28T02:20:12.412Z,51.212112
2022-09-28T02:21:12.423Z,51.212090
2022-09-28T02:22:12.419Z,51.212116
2022-09-28T02:23:12.407Z,51.212116
2022-09-28T02:24:12.407Z,51.212048
2022-09-28T02:25:12.383Z,51.212109
2022-09-28T02:26:12.384Z,51.212135
2022-09-28T02:27:12.386Z,51.211979
2022-09-28T02:28:12.356Z,51.212044
2022-09-28T02:29:12.360Z,51.212025
2022-09-28T02:30:12.352Z,51.212070
2022-09-28T02:31:12.389Z,51.212032
2022-09-28T02:32:12.355Z,51.212025
2022-09-28T02:33:12.322Z,51.212124
2022-09-28T02:34:12.372Z,51.212101
2022-09-28T02:35:12.319Z,51.212086
2022-09-28T02:36:12.313Z,51.212017
2022-09-28T02:37:12.315Z,51.212143
2022-09-28T02:38:12.311Z,51.212112
2022-09-28T02:39:12.302Z,51.212147
2022-09-28T02:40:12.289Z,51.212082
2022-09-28T02:41:12.277Z,51.212112
2022-09-28T02:42:12.291Z,51.212048
2022-09-28T02:43:12.284Z,51.212151
2022-09-28T02:44:12.265Z,51.212093
2022-09-28T02:45:12.273Z,51.212044
2022-09-28T02:46:12.291Z,51.212002
2022-09-28T02:47:12.244Z,51.212124
2022-09-28T02:48:12.256Z,51.212097
2022-09-28T02:49:22.751Z,51.212147
2022-09-28T02:50:14.235Z,51.212059
2022-09-28T02:51:12.230Z,51.212093
2022-09-28T02:52:12.214Z,51.212013
2022-09-28T02:53:12.231Z,51.212109
2022-09-28T02:54:16.674Z,51.211990
2022-09-28T02:55:14.194Z,51.211914
2022-09-28T02:56:12.189Z,51.211941
2022-09-28T02:57:12.181Z,51.211975
2022-09-28T02:58:12.198Z,51.212021
2022-09-28T02:59:12.169Z,51.212132
2022-09-28T03:00:12.170Z,51.211994
2022-09-28T03:01:12.189Z,51.211979
2022-09-28T03:02:12.206Z,51.212208
2022-09-28T03:03:12.204Z,51.211903
2022-09-28T03:04:12.149Z,51.212032
2022-09-28T03:05:12.140Z,51.212059
2022-09-28T03:06:12.132Z,51.212021
2022-09-28T03:07:12.148Z,51.212006
2022-09-28T03:08:12.133Z,51.211990
2022-09-28T03:09:12.116Z,51.212067
2022-09-28T03:10:12.109Z,51.212013
2022-09-28T03:11:12.106Z,51.212002
2022-09-28T03:12:12.092Z,51.212029
2022-09-28T03:13:12.087Z,51.212059
2022-09-28T03:14:12.108Z,51.212051
2022-09-28T03:15:12.080Z,51.211998
2022-09-28T03:16:12.206Z,51.212063
2022-09-28T03:17:12.732Z,51.212013
2022-09-28T03:18:12.061Z,51.212170
2022-09-28T03:19:12.074Z,51.212189
2022-09-28T03:20:12.054Z,51.212276
2022-09-28T03:21:12.071Z,51.212086
2022-09-28T03:22:12.040Z,51.212173
2022-09-28T03:23:24.227Z,51.212109
2022-09-28T03:24:14.100Z,51.212200
2022-09-28T03:25:12.032Z,51.212208
2022-09-28T03:26:12.005Z,51.212151
2022-09-28T03:27:12.045Z,51.212105
2022-09-28T03:28:11.996Z,51.212204
2022-09-28T03:29:12.001Z,51.212189
2022-09-28T03:30:12.000Z,51.212208
2022-09-28T03:31:12.025Z,51.212040
2022-09-28T03:32:11.969Z,51.212097
2022-09-28T03:33:11.976Z,51.212132
2022-09-28T03:34:11.976Z,51.212200
2022-09-28T03:35:11.960Z,51.212185
2022-09-28T03:36:12.009Z,51.212105
2022-09-28T03:37:11.944Z,51.212048
2022-09-28T03:38:11.952Z,51.212173
2022-09-28T03:39:11.956Z,51.212166
2022-09-28T03:40:12.944Z,51.212303
2022-09-28T03:41:11.936Z,51.212215
2022-09-28T03:42:11.942Z,51.212147
2022-09-28T03:43:11.913Z,51.212246
2022-09-28T03:44:11.904Z,51.212147
2022-09-28T03:45:11.948Z,51.212200
2022-09-28T03:46:12.294Z,51.212177
2022-09-28T03:47:11.892Z,51.212158
2022-09-28T03:48:11.917Z,51.212166
2022-09-28T03:49:11.874Z,51.212193
2022-09-28T03:50:11.864Z,51.212162
2022-09-28T03:51:11.874Z,51.212215
2022-09-28T03:52:11.876Z,51.212078
2022-09-28T03:53:11.864Z,51.212193
2022-09-28T03:54:11.836Z,51.212120
2022-09-28T03:55:11.843Z,51.212070
2022-09-28T03:56:11.856Z,51.212051
2022-09-28T03:57:11.820Z,51.212055
2022-09-28T03:58:11.821Z,51.212101
2022-09-28T03:59:11.827Z,51.212101
2022-09-28T04:00:11.804Z,51.212112
2022-09-28T04:01:16.411Z,51.212086
2022-09-28T04:02:13.825Z,51.212105
2022-09-28T04:03:11.794Z,51.212139
2022-09-28T04:04:11.782Z,51.212112
2022-09-28T04:05:11.786Z,51.212147
2022-09-28T04:06:11.822Z,51.212128
2022-09-28T04:07:11.768Z,51.212170
2022-09-28T04:08:11.762Z,51.212181
2022-09-28T04:09:11.761Z,51.212234
2022-09-28T04:10:11.737Z,51.212204
2022-09-28T04:11:11.756Z,51.212166
2022-09-28T04:12:11.751Z,51.212154
2022-09-28T04:13:11.725Z,51.212009
2022-09-28T04:14:11.714Z,51.212181
2022-09-28T04:15:11.723Z,51.212193
2022-09-28T04:16:11.788Z,51.212170
2022-09-28T04:17:11.725Z,51.212238
2022-09-28T04:18:11.710Z,51.212200
2022-09-28T04:19:11.719Z,51.212124
2022-09-28T04:20:11.676Z,51.212189
2022-09-28T04:21:11.685Z,51.212185
2022-09-28T04:22:11.713Z,51.212074
2022-09-28T04:23:11.677Z,51.212181
2022-09-28T04:24:12.210Z,51.212189
2022-09-28T04:25:11.681Z,51.212139
2022-09-28T04:26:11.661Z,51.212082
2022-09-28T04:27:11.652Z,51.212132
2022-09-28T04:28:11.639Z,51.212112
2022-09-28T04:29:11.739Z,51.212143
2022-09-28T04:30:11.624Z,51.212120
2022-09-28T04:31:11.719Z,51.212101
2022-09-28T04:32:11.627Z,51.212147
2022-09-28T04:33:11.615Z,51.212112
2022-09-28T04:34:11.620Z,51.212132
2022-09-28T04:35:11.603Z,51.212132
2022-09-28T04:36:11.588Z,51.212135
2022-09-28T04:37:11.592Z,51.212112
2022-09-28T04:38:11.587Z,51.212116
2022-09-28T04:39:11.628Z,51.212154
2022-09-28T04:40:11.620Z,51.212070
2022-09-28T04:41:11.616Z,51.212128
2022-09-28T04:42:11.569Z,51.212204
2022-09-28T04:43:12.229Z,51.212109
2022-09-28T04:44:11.565Z,51.212105
2022-09-28T04:45:14.250Z,51.212067
2022-09-28T04:46:11.621Z,51.212162
2022-09-28T04:47:11.553Z,51.212162
2022-09-28T04:48:11.595Z,51.212132
2022-09-28T04:49:11.659Z,51.212078
2022-09-28T04:50:11.519Z,51.212109
2022-09-28T04:51:11.518Z,51.212101
2022-09-28T04:52:17.180Z,51.212109
2022-09-28T04:53:13.549Z,51.212181
2022-09-28T04:54:11.530Z,51.212234
2022-09-28T04:55:11.498Z,51.212177
2022-09-28T04:56:11.526Z,51.212162
2022-09-28T04:57:11.531Z,51.212212
2022-09-28T04:58:11.485Z,51.212177
2022-09-28T04:59:11.465Z,51.212185
2022-09-28T05:00:11.469Z,51.212166
2022-09-28T05:01:11.497Z,51.212177
2022-09-28T05:02:11.517Z,51.212177
2022-09-28T05:03:11.433Z,51.212177
2022-09-28T05:04:11.452Z,51.212151
2022-09-28T05:05:11.448Z,51.212215
2022-09-28T05:06:11.422Z,51.212177
2022-09-28T05:07:11.423Z,51.212090
2022-09-28T05:08:11.420Z,51.212124
2022-09-28T05:09:11.403Z,51.212128
2022-09-28T05:10:11.419Z,51.212151
2022-09-28T05:11:11.403Z,51.212193
2022-09-28T05:12:11.392Z,51.212204
2022-09-28T05:13:11.388Z,51.212200
2022-09-28T05:14:11.374Z,51.212170
2022-09-28T05:15:11.382Z,51.212166
2022-09-28T05:16:11.382Z,51.212189
2022-09-28T05:17:11.365Z,51.212143
2022-09-28T05:18:11.355Z,51.212120
2022-09-28T05:19:11.347Z,51.212002
2022-09-28T05:20:11.347Z,51.212139
2022-09-28T05:21:11.413Z,51.212170
2022-09-28T05:22:11.395Z,51.212189
2022-09-28T05:23:11.332Z,51.212177
2022-09-28T05:24:11.327Z,51.212154
2022-09-28T05:25:11.344Z,51.212154
2022-09-28T05:26:11.332Z,51.212170
2022-09-28T05:27:11.297Z,51.212193
2022-09-28T05:28:11.315Z,51.212189
2022-09-28T05:29:11.287Z,51.212101
2022-09-28T05:30:12.307Z,51.212009
2022-09-28T05:31:11.283Z,51.212090
2022-09-28T05:32:11.336Z,51.212055
2022-09-28T05:33:11.278Z,51.211971
2022-09-28T05:34:11.280Z,51.212124
2022-09-28T05:35:11.266Z,51.211910
2022-09-28T05:36:11.272Z,51.212070
2022-09-28T05:37:11.248Z,51.212032
2022-09-28T05:38:11.243Z,51.212063
2022-09-28T05:39:11.300Z,51.212170
2022-09-28T05:40:11.254Z,51.212215
2022-09-28T05:41:11.266Z,51.211983
2022-09-28T05:42:11.211Z,51.211845
2022-09-28T05:43:11.225Z,51.211926
2022-09-28T05:44:12.195Z,51.211819
2022-09-28T05:45:11.295Z,51.211956
2022-09-28T05:46:11.284Z,51.211933
2022-09-28T05:47:11.204Z,51.211964
2022-09-28T05:48:11.175Z,51.211941
2022-09-28T05:49:11.211Z,51.211788
2022-09-28T05:50:11.218Z,51.211922
2022-09-28T05:51:12.245Z,51.212029
2022-09-28T05:52:11.155Z,51.211868
2022-09-28T05:53:11.168Z,51.211952
2022-09-28T05:54:11.183Z,51.211933
2022-09-28T05:55:11.150Z,51.211994
2022-09-28T05:56:11.136Z,51.212002
2022-09-28T05:57:11.153Z,51.212036
2022-09-28T05:58:11.140Z,51.211983
2022-09-28T05:59:11.157Z,51.211971
2022-09-28T06:00:11.137Z,51.211800
2022-09-28T06:01:11.286Z,51.211803
2022-09-28T06:02:11.158Z,51.211926
2022-09-28T06:03:11.108Z,51.211849
2022-09-28T06:04:11.205Z,51.211922
2022-09-28T06:05:11.108Z,51.211960
2022-09-28T06:06:11.079Z,51.211887
2022-09-28T06:07:11.095Z,51.211998
2022-09-28T06:08:11.073Z,51.211708
2022-09-28T06:09:11.084Z,51.211906
2022-09-28T06:10:11.069Z,51.211868
2022-09-28T06:11:11.047Z,51.211967
2022-09-28T06:12:11.048Z,51.211884
2022-09-28T06:13:11.052Z,51.211910
2022-09-28T06:14:11.116Z,51.211903
2022-09-28T06:15:11.030Z,51.211937
2022-09-28T06:16:11.055Z,51.211929
2022-09-28T06:17:11.027Z,51.211933
2022-09-28T06:18:11.039Z,51.211983
2022-09-28T06:19:11.028Z,51.212170
2022-09-28T06:20:11.027Z,51.212154
2022-09-28T06:21:11.003Z,51.211971
2022-09-28T06:22:10.984Z,51.212006
2022-09-28T06:23:10.980Z,51.211998
2022-09-28T06:24:11.038Z,51.211952
2022-09-28T06:25:10.985Z,51.211948
2022-09-28T06:26:10.960Z,51.212040
2022-09-28T06:27:10.978Z,51.212036
2022-09-28T06:28:10.966Z,51.212128
2022-09-28T06:29:12.825Z,51.212234
2022-09-28T06:30:11.955Z,51.212112
2022-09-28T06:31:11.008Z,51.212124
2022-09-28T06:32:10.919Z,51.212132
2022-09-28T06:33:10.947Z,51.212135
2022-09-28T06:34:10.956Z,51.212097
2022-09-28T06:35:10.915Z,51.212013
2022-09-28T06:36:10.927Z,51.212051
2022-09-28T06:37:11.588Z,51.212105
2022-09-28T06:38:10.899Z,51.212162
2022-09-28T06:39:10.905Z,51.212189
2022-09-28T06:40:10.899Z,51.212059
2022-09-28T06:41:10.883Z,51.211990
2022-09-28T06:42:10.918Z,51.212105
2022-09-28T06:43:10.888Z,51.212189
2022-09-28T06:44:10.962Z,51.212181
2022-09-28T06:45:10.923Z,51.212120
2022-09-28T06:46:10.943Z,51.211983
2022-09-28T06:47:10.834Z,51.211945
2022-09-28T06:48:10.851Z,51.212013
2022-09-28T06:49:10.834Z,51.211945
2022-09-28T06:50:10.840Z,51.212002
2022-09-28T06:51:10.826Z,51.212025
2022-09-28T06:52:10.810Z,51.212132
2022-09-28T06:53:10.816Z,51.212139
2022-09-28T06:54:10.849Z,51.212090
2022-09-28T06:55:10.799Z,51.212086
2022-09-28T06:56:10.809Z,51.212006
2022-09-28T06:57:10.779Z,51.212063
2022-09-28T06:58:10.781Z,51.212021
2022-09-28T06:59:10.783Z,51.212185
2022-09-28T07:00:10.806Z,51.212112
2022-09-28T07:01:10.874Z,51.212116
2022-09-28T07:02:10.939Z,51.212070
2022-09-28T07:03:10.747Z,51.212105
2022-09-28T07:04:10.757Z,51.212181
2022-09-28T07:05:10.758Z,51.212265
2022-09-28T07:06:10.760Z,51.212204
2022-09-28T07:07:10.747Z,51.212193
2022-09-28T07:08:10.778Z,51.212105
2022-09-28T07:09:30.101Z,51.212204
2022-09-28T07:10:12.698Z,51.212017
2022-09-28T07:11:10.723Z,51.211842
2022-09-28T07:12:10.706Z,51.211987
2022-09-28T07:13:29.275Z,51.212086
2022-09-28T07:14:23.194Z,51.212063
2022-09-28T07:15:12.679Z,51.212021
2022-09-28T07:16:10.738Z,51.212036
2022-09-28T07:17:14.282Z,51.212044
2022-09-28T07:18:11.668Z,51.212017
2022-09-28T07:19:10.642Z,51.212189
2022-09-28T07:20:18.071Z,51.212059
2022-09-28T07:21:25.095Z,51.212105
2022-09-28T07:22:17.447Z,51.212128
2022-09-28T07:23:19.470Z,51.212112
2022-09-28T07:24:12.613Z,51.212093
2022-09-28T07:25:10.610Z,51.212002
2022-09-28T07:26:10.598Z,51.212101
2022-09-28T07:27:10.610Z,51.212166
2022-09-28T07:28:10.766Z,51.212193
2022-09-28T07:29:10.580Z,51.212051
2022-09-28T07:30:10.592Z,51.212101
2022-09-28T07:31:10.650Z,51.211987
2022-09-28T07:32:10.557Z,51.212189
2022-09-28T07:33:10.577Z,51.212215
2022-09-28T07:34:10.670Z,51.212151
2022-09-28T07:35:10.543Z,51.212189
2022-09-28T07:36:10.525Z,51.212002
2022-09-28T07:37:10.528Z,51.212040
2022-09-28T07:38:10.517Z,51.212090
2022-09-28T07:39:10.516Z,51.212200
2022-09-28T07:40:10.610Z,51.212090
2022-09-28T07:41:10.631Z,51.212177
2022-09-28T07:42:10.483Z,51.212112
2022-09-28T07:43:10.485Z,51.212109
2022-09-28T07:44:11.488Z,51.212173
2022-09-28T07:45:10.484Z,51.211994
2022-09-28T07:46:10.526Z,51.212086
2022-09-28T07:47:10.506Z,51.212036
2022-09-28T07:49:12.383Z,51.212196
2022-09-28T07:50:10.461Z,51.211998
2022-09-28T07:51:10.437Z,51.212025
2022-09-28T07:52:10.425Z,51.212128
2022-09-28T07:53:10.413Z,51.212242
2022-09-28T07:54:10.420Z,51.212299
2022-09-28T07:55:11.436Z,51.211937
2022-09-28T07:56:10.393Z,51.212120
2022-09-28T07:57:10.475Z,51.212067
2022-09-28T07:58:10.389Z,51.212029
2022-09-28T07:59:10.394Z,51.211922
2022-09-28T08:00:10.415Z,51.211891
2022-09-28T08:01:10.547Z,51.212009
2022-09-28T08:02:10.411Z,51.211926
2022-09-28T08:03:10.347Z,51.212055
2022-09-28T08:04:10.344Z,51.211853
2022-09-28T08:05:10.343Z,51.212082
2022-09-28T08:06:10.363Z,51.211906
2022-09-28T08:07:10.324Z,51.211914
2022-09-28T08:08:10.364Z,51.212078
2022-09-28T08:09:10.355Z,51.212097
2022-09-28T08:10:10.341Z,51.212070
2022-09-28T08:11:10.296Z,51.212025
2022-09-28T08:12:10.349Z,51.212040
2022-09-28T08:13:10.272Z,51.212021
2022-09-28T08:14:36.700Z,51.211990
2022-09-28T08:15:10.265Z,51.212021
2022-09-28T08:16:10.300Z,51.211998
2022-09-28T08:17:10.280Z,51.212116
2022-09-28T08:18:10.248Z,51.212193
2022-09-28T08:19:10.268Z,51.212135
2022-09-28T08:20:10.268Z,51.212040
2022-09-28T08:21:11.220Z,51.212063
2022-09-28T08:22:10.215Z,51.212078
2022-09-28T08:23:10.224Z,51.212074
2022-09-28T08:24:10.251Z,51.212097
2022-09-28T08:25:10.182Z,51.212093
2022-09-28T08:26:15.255Z,51.212116
2022-09-28T08:27:12.195Z,51.212101
2022-09-28T08:28:10.188Z,51.212135
2022-09-28T08:29:10.171Z,51.212173
2022-09-28T08:30:10.214Z,51.212177
2022-09-28T08:31:10.220Z,51.212177
2022-09-28T08:32:10.145Z,51.211998
2022-09-28T08:33:10.143Z,51.212009
2022-09-28T08:34:10.174Z,51.212067
2022-09-28T08:35:10.140Z,51.212093
2022-09-28T08:36:10.164Z,51.212029
2022-09-28T08:37:10.107Z,51.212002
2022-09-28T08:38:10.102Z,51.211948
2022-09-28T08:39:10.097Z,51.211983
2022-09-28T08:40:10.159Z,51.211983
2022-09-28T08:41:10.169Z,51.211994
2022-09-28T08:42:10.068Z,51.212112
2022-09-28T08:43:10.087Z,51.212185
2022-09-28T08:44:10.161Z,51.212158
2022-09-28T08:45:10.072Z,51.212128
2022-09-28T08:46:10.108Z,51.212181
2022-09-28T08:47:10.074Z,51.212124
2022-09-28T08:48:10.058Z,51.212154
2022-09-28T08:49:30.678Z,51.212063
2022-09-28T08:50:12.027Z,51.212040
2022-09-28T08:51:10.020Z,51.212009
2022-09-28T08:52:10.025Z,51.212086
2022-09-28T08:53:10.005Z,51.212059
2022-09-28T08:54:11.892Z,51.212097
2022-09-28T08:55:09.990Z,51.212090
2022-09-28T08:56:10.029Z,51.212116
2022-09-28T08:57:09.972Z,51.212055
2022-09-28T08:58:09.993Z,51.211895
2022-09-28T08:59:09.993Z,51.211876
2022-09-28T09:00:11.826Z,51.212086
2022-09-28T09:01:10.029Z,51.212086
2022-09-28T09:02:10.026Z,51.212017
2022-09-28T09:03:09.956Z,51.211903
2022-09-28T09:04:09.913Z,51.211914
2022-09-28T09:05:10.918Z,51.211967
2022-09-28T09:06:09.905Z,51.211922
2022-09-28T09:07:09.950Z,51.211960
2022-09-28T09:08:09.929Z,51.211979
2022-09-28T09:09:09.892Z,51.212147
2022-09-28T09:10:09.887Z,51.212074
2022-09-28T09:11:09.883Z,51.212009
2022-09-28T09:12:09.860Z,51.211983
2022-09-28T09:13:09.872Z,51.212078
2022-09-28T09:14:09.886Z,51.212009
2022-09-28T09:15:09.918Z,51.212082
2022-09-28T09:16:09.857Z,51.212162
2022-09-28T09:17:09.831Z,51.212147
2022-09-28T09:18:09.840Z,51.212116
2022-09-28T09:19:09.852Z,51.212147
2022-09-28T09:20:09.811Z,51.212093
2022-09-28T09:21:09.810Z,51.212036
2022-09-28T09:22:09.800Z,51.212040
2022-09-28T09:23:09.799Z,51.212009
2022-09-28T09:24:09.784Z,51.212013
2022-09-28T09:25:09.787Z,51.211998
2022-09-28T09:26:09.799Z,51.212017
2022-09-28T09:27:09.768Z,51.212078
2022-09-28T09:28:09.768Z,51.212070
2022-09-28T09:29:09.751Z,51.212059
2022-09-28T09:30:09.741Z,51.212048
2022-09-28T09:31:09.811Z,51.212055
2022-09-28T09:32:09.744Z,51.211990
2022-09-28T09:33:09.738Z,51.211956
2022-09-28T09:34:09.703Z,51.211903
2022-09-28T09:35:10.713Z,51.211956
2022-09-28T09:36:09.739Z,51.211941
2022-09-28T09:37:09.702Z,51.211819
2022-09-28T09:38:09.683Z,51.212112
2022-09-28T09:39:09.736Z,51.212337
2022-09-28T09:40:09.714Z,51.212162
2022-09-28T09:41:09.753Z,51.212139
2022-09-28T09:42:09.670Z,51.212097
2022-09-28T09:43:09.663Z,51.212067
2022-09-28T09:44:09.753Z,51.212132
2022-09-28T09:45:09.671Z,51.212219
2022-09-28T09:46:09.716Z,51.212158
2022-09-28T09:47:09.677Z,51.212086
2022-09-28T09:48:09.637Z,51.212128
2022-09-28T09:49:09.668Z,51.212017
2022-09-28T09:50:09.662Z,51.211933
2022-09-28T09:51:09.636Z,51.211964
2022-09-28T09:52:09.638Z,51.212109
2022-09-28T09:53:09.753Z,51.212013
2022-09-28T09:54:09.610Z,51.212059
2022-09-28T09:55:09.607Z,51.212082
2022-09-28T09:56:09.603Z,51.212112
2022-09-28T09:57:09.583Z,51.212070
2022-09-28T09:58:09.582Z,51.212032
2022-09-28T09:59:09.584Z,51.212185
2022-09-28T10:00:09.562Z,51.212166
2022-09-28T10:01:09.627Z,51.212189
2022-09-28T10:02:11.799Z,51.212208
2022-09-28T10:03:10.590Z,51.212166
2022-09-28T10:04:09.554Z,51.212070
2022-09-28T10:05:09.553Z,51.212132
2022-09-28T10:06:09.521Z,51.212254
2022-09-28T10:07:09.521Z,51.212288
2022-09-28T10:08:09.510Z,51.212265
2022-09-28T10:09:09.513Z,51.212215
2022-09-28T10:10:09.508Z,51.212196
2022-09-28T10:11:09.492Z,51.212231
2022-09-28T10:12:09.489Z,51.212185
2022-09-28T10:13:09.472Z,51.212185
2022-09-28T10:14:09.467Z,51.212105
2022-09-28T10:15:09.473Z,51.212021
2022-09-28T10:16:09.459Z,51.212067
2022-09-28T10:17:09.633Z,51.212086
2022-09-28T10:18:09.468Z,51.212139
2022-09-28T10:19:09.449Z,51.212189
2022-09-28T10:20:09.428Z,51.212055
2022-09-28T10:21:09.421Z,51.211971
2022-09-28T10:22:09.429Z,51.211990
2022-09-28T10:23:09.432Z,51.212139
2022-09-28T10:24:09.404Z,51.212147
2022-09-28T10:25:09.428Z,51.212177
2022-09-28T10:26:09.424Z,51.212154
2022-09-28T10:27:09.368Z,51.212128
2022-09-28T10:28:09.389Z,51.212173
2022-09-28T10:29:09.404Z,51.212177
2022-09-28T10:30:09.377Z,51.212189
2022-09-28T10:32:09.350Z,51.212242
2022-09-28T10:33:09.390Z,51.212124
2022-09-28T10:34:09.358Z,51.212112
2022-09-28T10:35:09.345Z,51.212143
2022-09-28T10:36:09.322Z,51.212223
2022-09-28T10:37:09.343Z,51.212151
2022-09-28T10:38:09.326Z,51.212162
2022-09-28T10:39:09.306Z,51.212170
2022-09-28T10:40:09.301Z,51.212223
2022-09-28T10:41:09.322Z,51.212204
2022-09-28T10:42:09.288Z,51.212124
2022-09-28T10:43:09.296Z,51.212147
2022-09-28T10:44:09.364Z,51.212177
2022-09-28T10:45:09.280Z,51.212185
2022-09-28T10:46:09.358Z,51.212151
2022-09-28T10:47:09.252Z,51.212151
2022-09-28T10:48:09.253Z,51.212132
2022-09-28T10:49:09.258Z,51.212090
2022-09-28T10:50:09.236Z,51.212151
2022-09-28T10:51:09.236Z,51.212196
2022-09-28T10:52:09.235Z,51.212189
2022-09-28T10:53:09.220Z,51.212296
2022-09-28T10:54:09.226Z,51.212166
2022-09-28T10:55:09.211Z,51.212170
2022-09-28T10:56:09.195Z,51.212193
2022-09-28T10:57:13.301Z,51.212112
2022-09-28T10:58:10.199Z,51.212143
2022-09-28T10:59:09.202Z,51.212166
2022-09-28T11:00:09.182Z,51.212177
2022-09-28T11:01:09.290Z,51.212212
2022-09-28T11:02:09.285Z,51.212093
2022-09-28T11:03:09.163Z,51.212112
2022-09-28T11:04:09.195Z,51.212246
2022-09-28T11:05:09.147Z,51.212234
2022-09-28T11:06:09.156Z,51.212204
2022-09-28T11:07:09.117Z,51.212185
2022-09-28T11:08:09.114Z,51.212227
2022-09-28T11:09:09.098Z,51.212242
2022-09-28T11:10:09.129Z,51.212234
2022-09-28T11:11:09.089Z,51.212170
2022-09-28T11:12:09.117Z,51.212250
2022-09-28T11:13:09.097Z,51.212185
2022-09-28T11:14:09.089Z,51.212196
2022-09-28T11:15:09.114Z,51.212181
2022-09-28T11:16:09.083Z,51.212303
2022-09-28T11:17:09.110Z,51.212292
2022-09-28T11:18:09.093Z,51.212349
2022-09-28T11:19:09.052Z,51.212250
2022-09-28T11:20:09.069Z,51.212265
2022-09-28T11:21:12.556Z,51.212219
2022-09-28T11:22:13.058Z,51.212162
2022-09-28T11:23:10.025Z,51.212200
2022-09-28T11:24:09.017Z,51.212269
2022-09-28T11:25:09.024Z,51.212318
2022-09-28T11:26:09.089Z,51.212246